Aeroporto :
LOGIN :

Iscrizione | Disclaimer

   EN    FR    IT 

 










Sommario :    VFR   VFR Marginale   IFR   IFR Intensivo   IFR Molto Intensivo
Visibilità : 
Base nubi : 
>= 8 km
>= 3000ft
5 / 8 km
1000 / 3000 ft
1500m / 5 km
500 / 1000 ft
800 / 1500m
200 / 500 ft
< 800m
< 200 ft
Simboli :   Temporali  Nebbia  Neve Forte  Precipitazioni Forti  Vento > 20 kt
SIGMETs :   Varie  Temporali  Ghiacco  Turbolenza  Onda orograficha  Ceneri Vulcaniche






- Altitudine del aeroporto : 299 ft
- Codice IATA : EDM


LFRI - La Roche Sur Yon - Les Ajoncs

ULTIMO METAR :
  • 280430Z AUTO 13008KT 9999 ///TCU 05/04 Q1018

METARs OBSOLETI :
  • 280400Z AUTO 13007KT 9999 ///TCU 05/03 Q1018
  • 280330Z AUTO 14008KT CAVOK 05/03 Q1018
  • 280300Z AUTO 13007KT 9999 FEW036 BKN130 OVC150 05/02 Q1019
  • 280230Z AUTO 13007KT 9999 BKN035 BKN130 OVC170 05/02 Q1019
  • 280200Z AUTO 12006KT 9999 BKN031 BKN039 BKN160 05/02 Q1019

TAF TAF LFRI
Valido dal 27 a 18 ore il 28 a 18 ore UTC


271700Z 2718/2818 33006KT 9999 SCT040
BECMG 2804/2806 16010KT
TEMPO 2804/2806 4500 -RA
BECMG 2805/2807 BKN004 OVC009
TEMPO 2808/2814 2500 -DZRA BKN002
BECMG 2810/2812 22012KT
BECMG 2814/2816 BKN006 OVC015



MetMap, La meteo Aeronautica in un colpo d'occhio ! - Copyright ORBIFLY Dicembre 2007 - Disclaimer

ORBIFLY MET'MAP TEAM :

Programmazione e sviluppo : Alexandra Zaïnal
Concezione : Baudouin d'Aumeries
Aiuto per la programmazione : Marc-Olivier Méhu
Supporto tecnico e logistico : Manuel Goepfert
Aiuto per la traduzione : Arnaldo La Scala

Contatto : metmap@orbifly.com




FONTI E CREDITI :

   NOAA